Time;durP1;ratioP1;P1;durP2;ratioP2;P2;SDS_P1;SDS_P2;PMS_P1;PMS_P2;Temp;Humidity;BMP_temperature;BMP_pressure;BME280_temperature;BME280_humidity;BME280_pressure;Samples;Min_cycle;Max_cycle;Signal;HPM_P1;HPM_P2
2022/05/09 00:01:26;;;;;;;18.38;3.30;;;4.60;99.90;;;;;;5121234;28;20036;-64
2022/05/09 00:03:52;;;;;;;12.88;3.47;;;4.50;99.90;;;;;;5121116;28;20125;-64
2022/05/09 00:06:18;;;;;;;13.48;3.47;;;4.50;99.90;;;;;;5081904;28;20044;-64
2022/05/09 00:08:44;;;;;;;12.10;3.80;;;4.50;99.90;;;;;;5108890;28;20035;-64
2022/05/09 00:11:11;;;;;;;11.70;3.40;;;4.50;99.90;;;;;;5118640;28;20395;-64
2022/05/09 00:13:37;;;;;;;13.07;3.65;;;4.50;99.90;;;;;;5106422;28;20051;-64
2022/05/09 00:16:04;;;;;;;14.02;3.95;;;4.50;99.90;;;;;;5109362;28;20525;-65
2022/05/09 00:18:30;;;;;;;14.15;3.85;;;4.50;99.90;;;;;;5109258;28;20047;-65
2022/05/09 00:20:55;;;;;;;13.60;3.67;;;4.40;99.90;;;;;;5108337;28;20039;-64
2022/05/09 00:23:21;;;;;;;16.25;4.07;;;4.40;99.90;;;;;;5116758;28;20582;-64
2022/05/09 00:25:47;;;;;;;17.30;3.42;;;4.40;99.90;;;;;;5115899;28;20088;-64
2022/05/09 00:28:13;;;;;;;14.00;3.45;;;4.30;99.90;;;;;;5112545;28;20047;-65
2022/05/09 00:30:39;;;;;;;15.95;3.83;;;4.30;99.90;;;;;;5119055;28;20046;-64
2022/05/09 00:33:04;;;;;;;15.27;3.45;;;4.30;99.90;;;;;;5122597;28;20051;-64
2022/05/09 00:35:30;;;;;;;11.98;3.65;;;4.30;99.90;;;;;;5119106;28;20035;-64
2022/05/09 00:37:56;;;;;;;13.23;3.65;;;4.30;99.90;;;;;;5109094;28;20043;-64
2022/05/09 00:40:22;;;;;;;10.52;3.97;;;4.30;99.90;;;;;;5115661;28;20039;-64
2022/05/09 00:42:52;;;;;;;18.85;4.20;;;4.30;99.90;;;;;;5115682;28;20118;-64
2022/05/09 00:45:21;;;;;;;11.15;3.67;;;4.30;99.90;;;;;;5108744;28;20059;-64
2022/05/09 00:47:47;;;;;;;17.02;4.25;;;4.20;99.90;;;;;;5118592;27;20051;-64
2022/05/09 00:50:17;;;;;;;13.60;3.90;;;4.20;99.90;;;;;;5120345;27;20070;-64
2022/05/09 00:52:56;;;;;;;12.50;3.70;;;4.20;99.90;;;;;;5133085;27;20050;-64
2022/05/09 00:55:42;;;;;;;10.80;3.42;;;4.20;99.90;;;;;;5125674;27;20126;-64
2022/05/09 00:58:32;;;;;;;15.00;4.32;;;4.20;99.90;;;;;;5111982;27;20071;-64
2022/05/09 01:00:58;;;;;;;11.20;3.10;;;4.10;99.90;;;;;;5118491;27;20047;-66
2022/05/09 01:03:36;;;;;;;11.20;3.45;;;4.10;99.90;;;;;;5114327;27;20165;-64
2022/05/09 01:06:02;;;;;;;10.25;3.15;;;4.10;99.90;;;;;;5115741;27;20040;-64
2022/05/09 01:08:31;;;;;;;13.18;3.35;;;4.10;99.90;;;;;;5117284;27;20066;-64
2022/05/09 01:10:57;;;;;;;12.55;2.95;;;4.10;99.90;;;;;;5113641;27;20036;-64
2022/05/09 01:13:25;;;;;;;11.25;3.00;;;4.10;99.90;;;;;;5129885;27;20077;-64
2022/05/09 01:15:53;;;;;;;13.10;3.17;;;4.00;99.90;;;;;;5116083;27;20496;-64
2022/05/09 01:18:19;;;;;;;9.95;3.40;;;4.00;99.90;;;;;;5120894;27;20047;-63
2022/05/09 01:20:45;;;;;;;9.73;3.40;;;4.30;99.90;;;;;;5129137;27;20042;-64
2022/05/09 01:23:11;;;;;;;15.10;3.60;;;3.90;99.90;;;;;;5130279;27;20044;-64
2022/05/09 01:25:39;;;;;;;9.80;3.13;;;3.90;99.90;;;;;;5127340;27;20047;-64
2022/05/09 01:28:05;;;;;;;10.75;3.35;;;3.90;99.90;;;;;;5112286;27;20255;-64
2022/05/09 01:30:49;;;;;;;14.48;3.88;;;3.90;99.90;;;;;;5132447;27;20078;-64
2022/05/09 01:33:39;;;;;;;10.82;3.42;;;3.80;99.90;;;;;;5093623;28;20072;-65
2022/05/09 01:36:12;;;;;;;8.38;2.83;;;3.80;99.90;;;;;;5121852;27;20035;-63
2022/05/09 01:38:50;;;;;;;11.60;3.28;;;3.80;99.90;;;;;;5107941;27;20547;-63
2022/05/09 01:41:16;;;;;;;14.98;3.30;;;3.80;99.90;;;;;;5121664;27;20122;-63
2022/05/09 01:43:48;;;;;;;9.00;3.35;;;3.80;99.90;;;;;;5105695;28;20156;-64
2022/05/09 01:46:17;;;;;;;14.45;3.50;;;3.80;99.90;;;;;;5126557;27;20084;-63
2022/05/09 01:51:30;;;;;;;9.23;2.97;;;3.70;99.90;;;;;;5115915;27;20062;-63
2022/05/09 01:53:56;;;;;;;9.57;3.35;;;3.70;99.90;;;;;;5111839;27;20123;-63
2022/05/09 01:56:28;;;;;;;8.32;2.92;;;4.20;99.90;;;;;;5125883;27;20138;-64
2022/05/09 01:58:55;;;;;;;8.25;3.03;;;3.70;99.90;;;;;;5112015;27;20043;-64
2022/05/09 02:01:22;;;;;;;10.27;2.80;;;3.90;99.90;;;;;;5101297;27;20541;-63
2022/05/09 02:03:49;;;;;;;10.82;3.17;;;3.60;99.90;;;;;;5113649;27;20051;-63
2022/05/09 02:06:17;;;;;;;10.85;2.70;;;3.60;99.90;;;;;;5113049;27;20061;-63
2022/05/09 02:08:43;;;;;;;5.93;2.30;;;3.60;99.90;;;;;;5119049;27;20422;-63
2022/05/09 02:11:10;;;;;;;7.32;2.72;;;3.60;99.90;;;;;;5112279;27;20047;-64
2022/05/09 02:13:35;;;;;;;7.22;2.65;;;3.60;99.90;;;;;;5111239;27;20043;-63
2022/05/09 02:16:02;;;;;;;8.00;2.60;;;3.50;99.90;;;;;;5117214;27;20086;-64
2022/05/09 02:18:27;;;;;;;9.10;2.47;;;3.50;99.90;;;;;;5103187;27;20047;-63
2022/05/09 02:20:53;;;;;;;11.77;2.85;;;3.50;99.90;;;;;;5114297;27;20050;-64
2022/05/09 02:23:19;;;;;;;9.38;3.05;;;3.40;99.90;;;;;;5121392;27;20055;-63
2022/05/09 02:25:45;;;;;;;6.13;2.63;;;3.40;99.90;;;;;;5109668;28;20054;-63
2022/05/09 02:28:12;;;;;;;10.40;2.75;;;3.40;99.90;;;;;;5113767;27;20051;-63
2022/05/09 02:30:39;;;;;;;7.28;2.65;;;3.40;99.90;;;;;;5122887;27;20416;-63
2022/05/09 02:33:06;;;;;;;9.85;2.50;;;3.40;99.90;;;;;;5111421;27;20038;-63
2022/05/09 02:35:33;;;;;;;6.47;2.67;;;3.30;99.90;;;;;;5109483;27;20054;-63
2022/05/09 02:37:59;;;;;;;7.95;2.50;;;3.30;99.90;;;;;;5120241;27;20134;-64
2022/05/09 02:40:25;;;;;;;6.22;2.38;;;3.30;99.90;;;;;;5115444;27;20039;-63
2022/05/09 02:42:56;;;;;;;6.53;2.60;;;3.30;99.90;;;;;;5098324;27;20043;-64
2022/05/09 02:45:21;;;;;;;12.65;2.95;;;3.30;99.90;;;;;;5113420;27;20079;-64
2022/05/09 02:47:47;;;;;;;8.65;2.40;;;3.20;99.90;;;;;;5113653;27;20071;-64
2022/05/09 02:50:14;;;;;;;7.40;2.60;;;3.20;99.90;;;;;;5115388;27;20048;-63
2022/05/09 02:52:40;;;;;;;10.48;2.80;;;3.20;99.90;;;;;;5119409;27;20507;-63
2022/05/09 02:55:08;;;;;;;7.72;2.65;;;3.10;99.90;;;;;;5118934;27;20043;-63
2022/05/09 02:57:34;;;;;;;11.63;2.65;;;3.10;99.90;;;;;;5108168;27;20515;-63
2022/05/09 03:00:00;;;;;;;6.28;2.58;;;3.10;99.90;;;;;;5129078;27;20441;-64
2022/05/09 03:02:27;;;;;;;8.45;2.80;;;3.10;99.90;;;;;;5118666;27;20035;-64
2022/05/09 03:04:52;;;;;;;11.75;3.17;;;3.00;99.90;;;;;;5125748;27;20535;-63
2022/05/09 03:07:19;;;;;;;9.25;2.95;;;3.00;99.90;;;;;;5104792;28;20052;-63
2022/05/09 03:09:47;;;;;;;9.35;2.75;;;3.00;99.90;;;;;;5115223;27;20389;-63
2022/05/09 03:12:13;;;;;;;6.25;2.60;;;3.00;99.90;;;;;;5112096;27;20044;-64
2022/05/09 03:14:39;;;;;;;9.77;2.38;;;3.00;99.90;;;;;;5119975;27;20415;-64
2022/05/09 03:17:08;;;;;;;11.10;3.20;;;3.00;99.90;;;;;;5112297;27;20074;-63
2022/05/09 03:19:33;;;;;;;9.50;2.83;;;3.00;99.90;;;;;;5114205;27;20045;-63
2022/05/09 03:22:00;;;;;;;17.02;3.65;;;2.90;99.90;;;;;;5120129;27;20122;-63
2022/05/09 03:24:25;;;;;;;8.15;2.83;;;3.00;99.90;;;;;;5122100;27;20432;-63
2022/05/09 03:26:51;;;;;;;9.38;3.17;;;3.00;99.90;;;;;;5127308;27;20155;-63
2022/05/09 03:29:19;;;;;;;12.38;3.13;;;3.00;99.90;;;;;;5120237;27;20083;-63
2022/05/09 03:31:48;;;;;;;12.52;3.00;;;3.00;99.90;;;;;;5127149;27;20467;-63
2022/05/09 03:34:14;;;;;;;13.27;4.13;;;3.00;99.90;;;;;;5114607;27;20571;-63
2022/05/09 03:36:40;;;;;;;12.68;3.75;;;3.00;99.90;;;;;;5112810;27;20112;-63
2022/05/09 03:39:06;;;;;;;9.82;4.07;;;3.00;99.90;;;;;;5113817;27;20361;-63
2022/05/09 03:41:32;;;;;;;8.57;3.60;;;3.00;99.90;;;;;;5106173;28;20039;-63
2022/05/09 03:43:58;;;;;;;7.95;3.53;;;3.20;99.90;;;;;;5110246;27;20047;-63
2022/05/09 03:46:24;;;;;;;9.43;3.67;;;3.00;99.90;;;;;;5129506;27;20193;-63
2022/05/09 03:48:50;;;;;;;8.13;3.22;;;3.00;99.90;;;;;;5115822;27;20066;-63
2022/05/09 03:51:16;;;;;;;8.77;3.50;;;3.00;99.90;;;;;;5116448;27;20376;-63
2022/05/09 03:53:41;;;;;;;9.95;3.00;;;3.00;99.90;;;;;;5114695;28;20055;-63
2022/05/09 03:56:07;;;;;;;8.07;3.15;;;3.00;99.90;;;;;;5117665;27;20054;-63
2022/05/09 03:58:34;;;;;;;10.27;3.58;;;3.00;99.90;;;;;;5119969;27;20061;-63
2022/05/09 04:00:59;;;;;;;8.73;3.40;;;3.00;99.90;;;;;;5117295;27;20090;-63
2022/05/09 04:03:25;;;;;;;8.80;3.40;;;3.00;99.90;;;;;;5117725;27;20039;-63
2022/05/09 04:05:52;;;;;;;9.48;3.45;;;3.00;99.90;;;;;;5115544;27;20050;-63
2022/05/09 04:08:20;;;;;;;9.38;3.53;;;3.00;99.90;;;;;;5116413;28;20047;-63
2022/05/09 04:10:47;;;;;;;9.65;3.60;;;3.10;99.90;;;;;;5125053;27;20047;-64
2022/05/09 04:13:14;;;;;;;8.75;3.20;;;3.10;99.90;;;;;;5108330;28;20492;-63
2022/05/09 04:18:28;;;;;;;9.52;3.70;;;3.20;99.90;;;;;;5117614;28;20058;-63
2022/05/09 04:20:54;;;;;;;10.65;4.40;;;3.20;99.90;;;;;;5107691;28;20052;-63
2022/05/09 04:23:20;;;;;;;8.32;3.40;;;3.30;99.90;;;;;;5120471;27;20043;-63
2022/05/09 04:25:46;;;;;;;9.82;3.40;;;3.30;99.90;;;;;;5125235;27;20997;-63
2022/05/09 04:28:15;;;;;;;8.27;3.55;;;3.30;99.90;;;;;;5113054;27;20039;-63
2022/05/09 04:30:41;;;;;;;9.52;3.88;;;3.40;99.90;;;;;;5131128;27;20066;-63
2022/05/09 04:33:07;;;;;;;13.07;4.82;;;3.50;99.90;;;;;;5131536;27;20081;-63
2022/05/09 04:35:34;;;;;;;11.02;4.88;;;3.70;99.90;;;;;;5130081;27;20210;-63
2022/05/09 04:38:00;;;;;;;12.57;4.65;;;3.90;99.90;;;;;;5114568;27;20047;-63
2022/05/09 04:40:29;;;;;;;21.45;4.55;;;4.20;99.90;;;;;;5124001;27;20448;-63
2022/05/09 04:42:56;;;;;;;11.45;4.10;;;4.40;99.90;;;;;;5121191;27;20398;-63
2022/05/09 04:45:23;;;;;;;12.20;3.90;;;4.80;99.90;;;;;;5126709;27;20054;-63
2022/05/09 04:47:50;;;;;;;12.02;4.18;;;5.20;99.90;;;;;;5116852;27;20044;-63
2022/05/09 04:50:18;;;;;;;10.93;3.65;;;5.70;99.90;;;;;;5117310;27;20043;-63
2022/05/09 04:52:44;;;;;;;11.75;3.60;;;6.20;99.90;;;;;;5113350;27;20088;-63
2022/05/09 04:55:11;;;;;;;12.30;3.53;;;6.70;99.90;;;;;;5112629;28;20043;-63
2022/05/09 04:57:37;;;;;;;8.20;3.22;;;7.40;99.90;;;;;;5130189;27;20134;-63
2022/05/09 05:00:08;;;;;;;8.02;3.15;;;7.90;99.90;;;;;;5125520;27;20423;-63
2022/05/09 05:02:33;;;;;;;8.00;3.30;;;8.50;99.90;;;;;;5115381;27;20064;-63
2022/05/09 05:04:59;;;;;;;7.25;2.92;;;8.80;99.90;;;;;;5102050;27;20066;-64
2022/05/09 05:07:25;;;;;;;24.15;2.90;;;8.50;99.90;;;;;;5120579;27;20046;-63
2022/05/09 05:09:50;;;;;;;69.55;4.13;;;8.10;99.90;;;;;;5115574;27;20040;-64
2022/05/09 05:12:16;;;;;;;28.05;3.17;;;7.70;99.90;;;;;;5106858;27;20070;-63
2022/05/09 05:14:42;;;;;;;82.03;4.43;;;7.50;99.90;;;;;;5117525;27;20050;-63
2022/05/09 05:17:07;;;;;;;43.58;3.58;;;7.50;99.90;;;;;;5114831;27;20405;-63
2022/05/09 05:19:40;;;;;;;74.78;4.15;;;7.70;99.90;;;;;;5110074;27;20511;-63
2022/05/09 05:22:07;;;;;;;7.15;3.10;;;8.20;99.90;;;;;;5111650;27;20074;-63
2022/05/09 05:24:37;;;;;;;10.88;3.10;;;9.10;99.90;;;;;;5122208;27;20043;-63
2022/05/09 05:27:04;;;;;;;7.00;3.28;;;9.60;99.90;;;;;;5123507;27;20031;-63
2022/05/09 05:29:31;;;;;;;9.73;3.33;;;9.90;99.90;;;;;;5119065;27;20051;-63
2022/05/09 05:31:57;;;;;;;10.10;3.38;;;10.70;99.90;;;;;;5114288;27;20036;-64
2022/05/09 05:34:23;;;;;;;9.88;3.30;;;10.60;99.90;;;;;;5123274;27;20533;-63
2022/05/09 05:36:50;;;;;;;11.80;4.03;;;11.20;99.90;;;;;;5122793;27;20035;-63
2022/05/09 05:39:17;;;;;;;11.15;3.58;;;11.80;99.90;;;;;;5121002;27;20519;-63
2022/05/09 05:41:44;;;;;;;14.40;3.58;;;11.60;99.90;;;;;;5117120;27;20061;-64
2022/05/09 05:44:14;;;;;;;12.65;3.47;;;11.30;99.90;;;;;;5116420;27;20251;-63
2022/05/09 05:46:42;;;;;;;14.02;3.78;;;11.50;99.90;;;;;;5119795;27;20461;-63
2022/05/09 05:49:09;;;;;;;18.83;4.63;;;11.10;99.90;;;;;;5116938;27;20059;-63
2022/05/09 05:51:36;;;;;;;14.68;4.00;;;11.90;99.90;;;;;;5111679;27;20053;-63
2022/05/09 05:54:04;;;;;;;11.38;3.90;;;12.40;99.90;;;;;;5112252;27;20097;-63
2022/05/09 05:56:30;;;;;;;13.18;4.00;;;13.50;99.90;;;;;;5116497;27;20081;-63
2022/05/09 05:58:55;;;;;;;17.15;4.18;;;13.80;99.90;;;;;;5118425;27;20047;-63
2022/05/09 06:01:22;;;;;;;14.50;4.13;;;14.00;99.90;;;;;;5118538;27;20050;-63
2022/05/09 06:03:48;;;;;;;16.52;4.80;;;13.30;99.90;;;;;;5121514;27;20039;-63
2022/05/09 06:06:15;;;;;;;16.67;4.70;;;12.60;99.90;;;;;;5117347;27;20100;-63
2022/05/09 06:08:43;;;;;;;13.73;4.68;;;12.30;99.90;;;;;;5118623;27;20043;-63
2022/05/09 06:11:10;;;;;;;13.50;4.70;;;11.60;99.90;;;;;;5118230;27;20036;-63
2022/05/09 06:13:36;;;;;;;16.88;5.13;;;11.00;99.90;;;;;;5115202;27;20036;-64
2022/05/09 06:16:03;;;;;;;18.52;5.70;;;10.60;99.90;;;;;;5109591;27;20116;-63
2022/05/09 06:18:28;;;;;;;20.98;6.75;;;10.30;99.90;;;;;;5099309;27;20047;-63
2022/05/09 06:20:54;;;;;;;20.98;6.00;;;10.20;99.90;;;;;;5122268;27;20254;-63
2022/05/09 06:23:21;;;;;;;23.15;6.25;;;10.50;99.90;;;;;;5118516;27;20054;-63
2022/05/09 06:25:48;;;;;;;16.08;4.95;;;10.70;99.90;;;;;;5117391;27;20050;-63
2022/05/09 06:28:15;;;;;;;24.67;6.13;;;10.80;99.90;;;;;;5123822;27;20122;-63
2022/05/09 06:30:43;;;;;;;20.00;5.88;;;12.80;99.90;;;;;;5118965;27;20054;-63
2022/05/09 06:33:09;;;;;;;21.90;6.45;;;13.20;99.90;;;;;;5120489;27;20046;-65
2022/05/09 06:35:43;;;;;;;16.50;6.70;;;12.80;99.90;;;;;;5115364;27;20126;-63
2022/05/09 06:38:14;;;;;;;17.13;6.10;;;12.40;99.90;;;;;;5110348;27;20640;-63
2022/05/09 06:40:40;;;;;;;24.77;6.57;;;12.20;99.90;;;;;;5112001;27;20118;-63
2022/05/09 06:43:07;;;;;;;23.70;5.97;;;12.40;99.90;;;;;;5122349;27;20726;-63
2022/05/09 06:45:33;;;;;;;20.45;6.68;;;12.20;99.90;;;;;;5120089;27;20047;-63
2022/05/09 06:47:59;;;;;;;16.58;5.88;;;12.00;99.90;;;;;;5112001;27;20519;-63
2022/05/09 06:50:28;;;;;;;19.60;6.05;;;11.90;99.90;;;;;;5113912;27;20527;-63
2022/05/09 06:52:54;;;;;;;25.63;6.47;;;11.70;99.90;;;;;;5117675;27;20054;-63
2022/05/09 06:55:21;;;;;;;23.00;6.30;;;11.70;99.90;;;;;;5108295;27;20499;-63
2022/05/09 06:57:49;;;;;;;20.85;5.82;;;11.60;99.90;;;;;;5103761;27;20058;-63
2022/05/09 07:00:18;;;;;;;16.58;4.78;;;11.60;99.90;;;;;;5103855;27;20046;-63
2022/05/09 07:02:45;;;;;;;18.48;6.65;;;11.60;99.90;;;;;;5108997;27;20046;-63
2022/05/09 07:05:13;;;;;;;25.00;6.50;;;11.60;99.90;;;;;;5110346;27;20126;-63
2022/05/09 07:07:39;;;;;;;20.60;6.20;;;11.60;99.90;;;;;;5112600;27;20035;-63
2022/05/09 07:10:05;;;;;;;19.42;5.65;;;11.70;99.90;;;;;;5107601;27;20434;-63
2022/05/09 07:12:31;;;;;;;20.77;5.63;;;11.80;99.90;;;;;;5102412;27;20043;-63
2022/05/09 07:14:57;;;;;;;24.00;5.78;;;12.00;99.90;;;;;;5102497;27;20051;-63
2022/05/09 07:17:23;;;;;;;21.73;5.60;;;12.20;99.90;;;;;;5116591;27;20047;-63
2022/05/09 07:19:49;;;;;;;19.25;6.20;;;12.40;99.90;;;;;;5113984;27;20044;-64
2022/05/09 07:22:14;;;;;;;21.13;5.50;;;12.70;99.90;;;;;;5122507;27;20519;-63
2022/05/09 07:24:40;;;;;;;25.20;5.15;;;12.90;99.90;;;;;;5121893;27;20443;-63
2022/05/09 07:27:07;;;;;;;18.88;4.82;;;13.20;99.90;;;;;;5118744;27;20047;-63
2022/05/09 07:29:34;;;;;;;20.95;4.93;;;13.70;99.90;;;;;;5115583;27;20036;-63
2022/05/09 07:32:00;;;;;;;23.10;4.70;;;14.30;99.90;;;;;;5110787;27;20039;-63
2022/05/09 07:34:25;;;;;;;13.75;4.20;;;14.90;99.90;;;;;;5121748;27;20035;-63
2022/05/09 07:36:51;;;;;;;18.50;5.03;;;15.40;99.90;;;;;;5111736;27;20416;-63
2022/05/09 07:39:16;;;;;;;14.75;5.18;;;15.90;99.90;;;;;;5120054;27;20035;-63
2022/05/09 07:41:42;;;;;;;12.50;4.70;;;16.90;99.90;;;;;;5105533;27;20174;-63
2022/05/09 07:44:08;;;;;;;24.30;5.40;;;17.50;99.90;;;;;;5110402;27;20445;-63
2022/05/09 07:46:34;;;;;;;14.90;4.78;;;17.70;99.90;;;;;;5099601;27;20051;-63
2022/05/09 07:49:00;;;;;;;15.52;4.35;;;17.70;99.90;;;;;;5108955;27;20054;-64
2022/05/09 07:51:26;;;;;;;16.42;4.63;;;17.60;99.90;;;;;;5117546;27;20062;-64
2022/05/09 07:53:52;;;;;;;18.20;4.68;;;17.60;99.90;;;;;;5117231;27;20047;-64
2022/05/09 07:56:18;;;;;;;17.45;4.30;;;17.60;99.90;;;;;;5118758;27;20480;-64
2022/05/09 07:58:43;;;;;;;17.02;4.47;;;17.80;99.90;;;;;;5112841;27;20054;-63
2022/05/09 08:01:09;;;;;;;16.58;4.10;;;18.10;99.90;;;;;;5118563;27;20035;-63
2022/05/09 08:03:37;;;;;;;16.27;4.47;;;18.20;99.90;;;;;;5112578;28;20730;-63
2022/05/09 08:06:03;;;;;;;16.90;4.05;;;18.30;99.90;;;;;;5102321;28;20127;-63
2022/05/09 08:08:30;;;;;;;16.27;4.38;;;18.40;99.90;;;;;;5105562;28;20027;-66
2022/05/09 08:10:58;;;;;;;20.08;4.28;;;18.50;99.90;;;;;;5106238;28;20058;-63
2022/05/09 08:13:26;;;;;;;12.02;4.00;;;18.80;99.90;;;;;;5111006;28;20038;-64
2022/05/09 08:15:52;;;;;;;15.32;4.15;;;19.00;99.90;;;;;;5117963;27;20035;-64
2022/05/09 08:18:19;;;;;;;18.85;4.03;;;19.10;99.90;;;;;;5117179;28;20040;-63
2022/05/09 08:20:47;;;;;;;15.15;4.32;;;19.30;99.90;;;;;;5118019;27;20037;-63
2022/05/09 08:23:16;;;;;;;13.80;3.20;;;19.50;99.90;;;;;;5121874;27;20578;-64
2022/05/09 08:25:44;;;;;;;12.70;3.15;;;19.80;99.90;;;;;;5117613;28;20047;-63
2022/05/09 08:28:10;;;;;;;17.92;3.72;;;19.90;99.90;;;;;;5114026;28;20089;-63
2022/05/09 08:30:37;;;;;;;13.68;4.35;;;20.00;99.90;;;;;;5122472;27;20038;-63
2022/05/09 08:33:06;;;;;;;14.25;3.03;;;20.10;99.90;;;;;;5114025;28;20078;-63
2022/05/09 08:35:33;;;;;;;13.98;4.15;;;20.30;99.90;;;;;;5111268;27;20057;-64
2022/05/09 08:37:58;;;;;;;12.30;3.58;;;20.40;99.90;;;;;;5108593;28;20144;-64
2022/05/09 08:40:45;;;;;;;10.75;3.70;;;20.50;99.90;;;;;;5112366;28;20048;-64
2022/05/09 08:43:19;;;;;;;12.68;3.53;;;20.60;99.90;;;;;;5109574;27;20039;-63
2022/05/09 08:46:06;;;;;;;14.85;3.38;;;20.80;99.90;;;;;;5091105;28;20099;-63
2022/05/09 08:48:52;;;;;;;14.48;4.18;;;21.00;99.90;;;;;;5113585;27;20061;-64
2022/05/09 08:51:33;;;;;;;13.57;2.85;;;21.10;99.90;;;;;;5114528;27;20039;-64
2022/05/09 08:54:05;;;;;;;13.40;3.38;;;21.20;99.90;;;;;;5097360;28;20058;-64
2022/05/09 08:56:33;;;;;;;19.67;3.85;;;21.20;98.60;;;;;;5100577;27;20051;-64
2022/05/09 08:59:09;;;;;;;13.40;3.35;;;21.30;97.30;;;;;;5110840;28;20068;-64
2022/05/09 09:01:59;;;;;;;12.32;2.95;;;21.30;96.10;;;;;;5112377;27;20063;-65
2022/05/09 09:04:29;;;;;;;9.93;2.63;;;21.30;98.20;;;;;;5105068;27;20043;-64
2022/05/09 09:07:12;;;;;;;10.73;2.50;;;21.60;97.70;;;;;;5105217;27;20484;-64
2022/05/09 09:10:09;;;;;;;11.75;2.60;;;21.90;97.70;;;;;;5115797;27;20548;-64
2022/05/09 09:12:48;;;;;;;12.05;2.65;;;22.20;96.00;;;;;;5105958;27;20054;-64
2022/05/09 09:15:29;;;;;;;10.98;2.30;;;22.20;91.40;;;;;;5117619;27;20046;-65
2022/05/09 09:18:05;;;;;;;13.23;2.77;;;22.20;91.10;;;;;;5099987;27;20415;-65
2022/05/09 09:20:42;;;;;;;12.25;2.25;;;22.30;90.10;;;;;;5114002;27;20879;-64
2022/05/09 09:23:14;;;;;;;7.70;2.10;;;22.30;87.10;;;;;;5125530;27;20414;-65
2022/05/09 09:26:03;;;;;;;10.10;2.40;;;22.40;87.40;;;;;;5124950;27;20500;-65
2022/05/09 09:28:56;;;;;;;13.13;3.13;;;22.60;89.50;;;;;;5116632;27;20067;-65
2022/05/09 09:31:35;;;;;;;9.57;2.15;;;22.70;89.50;;;;;;5123636;27;20097;-65
2022/05/09 09:34:32;;;;;;;12.65;2.25;;;22.60;80.80;;;;;;5123748;27;20100;-65
2022/05/09 09:37:43;;;;;;;6.32;2.00;;;22.70;77.90;;;;;;5118592;27;20564;-64
2022/05/09 09:40:10;;;;;;;9.07;2.25;;;22.80;78.90;;;;;;5114920;27;20043;-65
2022/05/09 09:42:36;;;;;;;7.93;2.50;;;22.60;74.40;;;;;;5116826;27;20403;-65
2022/05/09 09:45:28;;;;;;;7.88;2.22;;;22.50;75.50;;;;;;5115141;27;20601;-65
2022/05/09 09:48:09;;;;;;;6.68;2.13;;;22.50;74.40;;;;;;5094408;27;20051;-65
2022/05/09 09:50:35;;;;;;;9.85;2.20;;;22.70;72.00;;;;;;5118841;27;20046;-65
2022/05/09 09:53:02;;;;;;;11.40;2.63;;;22.80;73.40;;;;;;5112716;27;20043;-65
2022/05/09 09:55:34;;;;;;;9.75;2.25;;;23.00;75.70;;;;;;5096990;27;20047;-65
2022/05/09 09:58:27;;;;;;;9.48;2.38;;;23.10;74.60;;;;;;5115580;27;20051;-64
2022/05/09 10:01:09;;;;;;;9.80;2.10;;;23.10;73.70;;;;;;5117757;27;20043;-64
2022/05/09 10:03:39;;;;;;;9.25;2.28;;;23.00;72.70;;;;;;5107955;27;20071;-65
2022/05/09 10:06:15;;;;;;;9.87;2.40;;;23.10;72.60;;;;;;5111402;27;20784;-64
2022/05/09 10:08:42;;;;;;;11.57;2.40;;;23.00;70.70;;;;;;5109221;27;20828;-64
2022/05/09 10:11:22;;;;;;;8.68;2.03;;;23.00;73.40;;;;;;5115283;27;20040;-64
2022/05/09 10:13:54;;;;;;;9.38;2.33;;;23.10;73.00;;;;;;5108621;27;20049;-65
2022/05/09 10:16:33;;;;;;;12.95;2.97;;;23.00;69.00;;;;;;5108878;27;20459;-64
2022/05/09 10:19:01;;;;;;;12.40;2.65;;;22.80;68.70;;;;;;5126625;27;20130;-64
2022/05/09 10:24:50;;;;;;;8.63;2.33;;;22.80;69.20;;;;;;5125039;27;20051;-64
2022/05/09 10:27:22;;;;;;;11.35;2.60;;;22.70;67.80;;;;;;5128326;27;20051;-65
2022/05/09 10:29:51;;;;;;;12.98;2.50;;;22.70;70.30;;;;;;5114915;27;20100;-64
2022/05/09 10:32:34;;;;;;;9.65;2.53;;;22.70;69.20;;;;;;5089694;27;20049;-65
2022/05/09 10:35:33;;;;;;;12.77;2.42;;;22.70;67.50;;;;;;5107813;27;20058;-66
2022/05/09 10:38:05;;;;;;;11.50;2.33;;;22.70;68.80;;;;;;5101500;27;20047;-65
2022/05/09 10:40:37;;;;;;;8.98;2.40;;;22.80;68.20;;;;;;5101896;27;20101;-65
2022/05/09 10:43:06;;;;;;;8.65;2.28;;;22.80;66.30;;;;;;5103089;27;20174;-65
2022/05/09 10:45:44;;;;;;;9.27;2.15;;;22.80;69.00;;;;;;5120954;27;20044;-64
2022/05/09 10:48:21;;;;;;;12.30;2.90;;;22.80;67.00;;;;;;5096801;27;20043;-64
2022/05/09 10:51:21;;;;;;;13.27;3.05;;;22.80;68.40;;;;;;5112544;27;20684;-65
2022/05/09 10:53:54;;;;;;;11.13;2.17;;;22.80;64.90;;;;;;5124126;27;20461;-64
2022/05/09 10:56:35;;;;;;;7.53;2.03;;;22.70;66.10;;;;;;5115771;27;20068;-65
2022/05/09 10:59:17;;;;;;;13.38;2.30;;;22.70;66.30;;;;;;5125418;27;20047;-66
2022/05/09 11:01:52;;;;;;;13.38;2.28;;;22.90;68.30;;;;;;5118085;27;20115;-65
2022/05/09 11:04:18;;;;;;;11.93;3.05;;;23.00;66.30;;;;;;5094718;27;20082;-65
2022/05/09 11:07:11;;;;;;;8.90;2.20;;;23.10;67.20;;;;;;5112782;27;20039;-65
2022/05/09 11:09:56;;;;;;;11.75;2.50;;;23.10;65.40;;;;;;5118494;27;20055;-65
2022/05/09 11:12:37;;;;;;;13.43;2.58;;;23.20;66.80;;;;;;5112543;27;20051;-65
2022/05/09 11:15:05;;;;;;;8.80;2.13;;;23.20;64.20;;;;;;5107452;27;20138;-65
2022/05/09 11:17:48;;;;;;;10.68;2.25;;;23.10;62.90;;;;;;5114793;27;20122;-65
2022/05/09 11:20:40;;;;;;;11.68;2.30;;;23.10;63.50;;;;;;5106114;27;20099;-65
2022/05/09 11:23:34;;;;;;;12.25;3.72;;;23.10;63.60;;;;;;5113624;27;20035;-65
2022/05/09 11:26:22;;;;;;;13.00;2.45;;;23.10;63.60;;;;;;5113996;27;20046;-65
2022/05/09 11:29:12;;;;;;;10.48;2.80;;;23.10;64.80;;;;;;5120236;27;20043;-65
2022/05/09 11:32:07;;;;;;;8.02;2.10;;;23.00;64.20;;;;;;5118339;27;20052;-65
2022/05/09 11:34:54;;;;;;;8.25;2.10;;;22.90;62.60;;;;;;5121399;27;20043;-65
2022/05/09 11:37:57;;;;;;;10.43;1.95;;;22.90;62.80;;;;;;5111544;27;20046;-65
2022/05/09 11:40:49;;;;;;;8.45;2.10;;;23.00;64.80;;;;;;5110824;27;20039;-65
2022/05/09 11:43:34;;;;;;;9.40;2.28;;;22.90;62.90;;;;;;5120234;27;20129;-65
2022/05/09 11:46:15;;;;;;;7.97;2.17;;;23.00;64.90;;;;;;5105241;27;20514;-65
2022/05/09 11:49:05;;;;;;;12.60;2.85;;;23.20;63.90;;;;;;5126829;27;20042;-65
2022/05/09 11:51:43;;;;;;;6.93;2.72;;;23.40;63.80;;;;;;5116931;27;20096;-64
2022/05/09 11:54:23;;;;;;;10.68;2.45;;;23.40;62.60;;;;;;5111606;27;20042;-65
2022/05/09 11:57:00;;;;;;;10.20;2.38;;;23.20;62.10;;;;;;5106464;27;20146;-65
2022/05/09 11:59:32;;;;;;;10.27;2.28;;;23.10;62.30;;;;;;5114551;27;20032;-65
2022/05/09 12:02:05;;;;;;;9.50;2.38;;;23.10;62.60;;;;;;5113143;27;20513;-65
2022/05/09 12:04:47;;;;;;;9.30;2.53;;;23.20;62.90;;;;;;5122968;27;20110;-65
2022/05/09 12:07:22;;;;;;;9.35;1.75;;;23.30;62.80;;;;;;5113094;28;20385;-65
2022/05/09 12:10:04;;;;;;;8.52;2.13;;;23.50;63.60;;;;;;5119088;27;20430;-65
2022/05/09 12:12:41;;;;;;;9.23;1.90;;;23.70;63.60;;;;;;5119000;28;20040;-65
2022/05/09 12:15:14;;;;;;;9.32;1.75;;;23.70;60.90;;;;;;5099709;28;20455;-65
2022/05/09 12:17:45;;;;;;;10.88;2.70;;;23.70;62.80;;;;;;5116824;27;20583;-65
2022/05/09 12:20:34;;;;;;;6.35;1.90;;;23.80;61.70;;;;;;5117590;27;20455;-65
2022/05/09 12:23:09;;;;;;;6.63;1.80;;;23.80;60.60;;;;;;5116280;28;20044;-65
2022/05/09 12:25:41;;;;;;;12.05;2.08;;;23.70;59.40;;;;;;5100444;28;20515;-65
2022/05/09 12:28:27;;;;;;;9.25;2.00;;;23.60;60.20;;;;;;5115397;27;20743;-65
2022/05/09 12:30:56;;;;;;;7.35;1.67;;;23.70;60.40;;;;;;5118735;27;20047;-65
2022/05/09 12:33:47;;;;;;;7.20;1.70;;;23.80;60.90;;;;;;5119524;27;20079;-66
2022/05/09 12:36:18;;;;;;;9.75;1.98;;;23.90;61.80;;;;;;5117908;28;20325;-65
2022/05/09 12:38:47;;;;;;;6.80;1.88;;;24.00;59.40;;;;;;5101682;28;20054;-65
2022/05/09 12:41:38;;;;;;;8.98;1.70;;;23.80;57.30;;;;;;5100517;28;20418;-65
2022/05/09 12:44:12;;;;;;;8.25;2.05;;;23.80;59.40;;;;;;5073357;27;20055;-65
2022/05/09 12:47:00;;;;;;;8.05;1.92;;;23.80;58.80;;;;;;5111710;27;20062;-65
2022/05/09 12:49:37;;;;;;;7.95;1.95;;;23.90;60.30;;;;;;5107895;27;20669;-65
2022/05/09 12:52:03;;;;;;;9.63;1.92;;;23.90;59.20;;;;;;5107978;27;20134;-65
2022/05/09 12:54:30;;;;;;;9.85;2.15;;;23.90;61.20;;;;;;5121426;27;20143;-65
2022/05/09 12:56:59;;;;;;;8.63;1.90;;;23.90;61.50;;;;;;5108525;27;20471;-65
2022/05/09 12:59:43;;;;;;;10.15;2.30;;;24.00;59.20;;;;;;5117049;27;20043;-65
2022/05/09 13:02:09;;;;;;;6.25;1.83;;;24.00;59.90;;;;;;5120068;27;20040;-65
2022/05/09 13:04:36;;;;;;;8.52;1.58;;;24.00;60.20;;;;;;5103644;27;20065;-65
2022/05/09 13:07:07;;;;;;;7.35;1.80;;;24.10;60.00;;;;;;5122369;27;20053;-65
2022/05/09 13:09:47;;;;;;;7.13;1.80;;;24.00;58.10;;;;;;5118465;27;20138;-65
2022/05/09 13:12:25;;;;;;;9.10;1.80;;;24.10;59.10;;;;;;5112132;27;20127;-65
2022/05/09 13:14:58;;;;;;;5.25;1.48;;;24.10;59.70;;;;;;5114950;27;20221;-66